createdAt,value
2023-02-05T00:00:06.639Z,-1.00
2023-02-05T00:02:33.389Z,-1.00
2023-02-05T00:05:00.218Z,-0.90
2023-02-05T00:07:27.271Z,-0.90
2023-02-05T00:09:53.956Z,-0.90
2023-02-05T00:12:21.033Z,-1.00
2023-02-05T00:14:47.740Z,-1.00
2023-02-05T00:17:14.416Z,-1.10
2023-02-05T00:19:41.131Z,-1.10
2023-02-05T00:22:07.869Z,-1.10
2023-02-05T00:24:34.527Z,-1.20
2023-02-05T00:27:01.279Z,-1.20
2023-02-05T00:29:27.965Z,-1.30
2023-02-05T00:31:54.794Z,-1.30
2023-02-05T00:34:21.459Z,-1.30
2023-02-05T00:36:48.144Z,-1.20
2023-02-05T00:39:14.868Z,-1.20
2023-02-05T00:41:41.821Z,-1.10
2023-02-05T00:44:08.718Z,-1.10
2023-02-05T00:46:35.370Z,-1.10
2023-02-05T00:49:02.021Z,-1.10
2023-02-05T00:51:28.717Z,-1.10
2023-02-05T00:53:55.378Z,-1.10
2023-02-05T00:56:22.475Z,-1.10
2023-02-05T00:58:50.834Z,-1.10
2023-02-05T01:01:17.727Z,-1.10
2023-02-05T01:03:44.490Z,-1.10
2023-02-05T01:06:11.151Z,-1.10
2023-02-05T01:08:38.053Z,-1.10
2023-02-05T01:11:08.647Z,-1.20
2023-02-05T01:13:35.490Z,-1.20
2023-02-05T01:16:02.271Z,-1.20
2023-02-05T01:18:28.956Z,-1.20
2023-02-05T01:20:55.957Z,-1.20
2023-02-05T01:23:22.649Z,-1.20
2023-02-05T01:25:50.373Z,-1.20
2023-02-05T01:28:17.329Z,-1.20
2023-02-05T01:30:50.829Z,-1.20
2023-02-05T01:33:18.948Z,-1.20
2023-02-05T01:35:46.018Z,-1.10
2023-02-05T01:38:13.531Z,-1.10
2023-02-05T01:40:40.720Z,-1.00
2023-02-05T01:43:15.843Z,-1.10
2023-02-05T01:45:57.771Z,-1.00
2023-02-05T01:48:29.504Z,-1.00
2023-02-05T01:51:02.073Z,-1.00
2023-02-05T01:53:33.489Z,-1.00
2023-02-05T01:56:23.145Z,-1.00
2023-02-05T01:59:00.164Z,-1.00
2023-02-05T02:01:27.949Z,-0.90
2023-02-05T02:03:57.271Z,0.40
2023-02-05T02:06:23.994Z,-0.80
2023-02-05T02:08:50.682Z,-0.80
2023-02-05T02:11:21.254Z,-0.80
2023-02-05T02:13:49.801Z,-0.70
2023-02-05T02:16:16.909Z,-0.70
2023-02-05T02:18:44.972Z,-0.60
2023-02-05T02:21:33.490Z,-0.60
2023-02-05T02:24:33.836Z,-0.60
2023-02-05T02:27:49.107Z,-0.60
2023-02-05T02:30:28.017Z,-0.60
2023-02-05T02:33:05.227Z,-0.50
2023-02-05T02:35:41.283Z,-0.50
2023-02-05T02:38:48.639Z,-0.50
2023-02-05T02:41:25.037Z,-0.50
2023-02-05T02:43:56.595Z,-0.40
2023-02-05T02:46:27.525Z,-0.40
2023-02-05T02:48:58.360Z,-0.40
2023-02-05T02:51:27.502Z,-0.30
2023-02-05T02:53:58.807Z,-0.30
2023-02-05T02:56:27.622Z,-0.30
2023-02-05T02:59:03.305Z,-0.20
2023-02-05T03:01:34.813Z,-0.20
2023-02-05T03:04:12.695Z,-0.20
2023-02-05T03:06:42.613Z,-0.30
2023-02-05T03:09:16.835Z,-0.20
2023-02-05T03:11:43.526Z,-0.20
2023-02-05T03:14:10.216Z,-0.20
2023-02-05T03:16:37.126Z,1.00
2023-02-05T03:19:05.539Z,-0.20
2023-02-05T03:21:43.150Z,-0.20
2023-02-05T03:24:10.699Z,-0.20
2023-02-05T03:26:40.363Z,-0.90
2023-02-05T03:29:10.625Z,-0.20
2023-02-05T03:31:57.655Z,-0.20
2023-02-05T03:34:46.350Z,-0.10
2023-02-05T03:37:33.978Z,-0.10
2023-02-05T03:40:22.184Z,0.70
2023-02-05T03:43:10.176Z,-0.10
2023-02-05T03:45:43.600Z,-0.10
2023-02-05T03:48:16.206Z,-0.10
2023-02-05T03:51:01.670Z,-0.10
2023-02-05T03:53:38.767Z,-0.10
2023-02-05T03:56:32.324Z,-0.10
2023-02-05T03:58:59.979Z,-0.10
2023-02-05T04:01:26.882Z,-0.10
2023-02-05T04:03:53.661Z,-0.10
2023-02-05T04:06:20.326Z,-0.10
2023-02-05T04:08:47.176Z,-0.10
2023-02-05T04:11:14.608Z,-0.10
2023-02-05T04:13:41.288Z,-0.10
2023-02-05T04:16:08.043Z,-0.10
2023-02-05T04:18:34.711Z,-0.10
2023-02-05T04:21:01.757Z,-0.10
2023-02-05T04:23:28.455Z,-0.10
2023-02-05T04:25:55.687Z,0.00
2023-02-05T04:28:22.366Z,0.00
2023-02-05T04:30:49.063Z,0.00
2023-02-05T04:33:15.846Z,0.00
2023-02-05T04:35:42.666Z,0.00
2023-02-05T04:38:09.518Z,0.10
2023-02-05T04:40:36.216Z,0.10
2023-02-05T04:43:03.011Z,0.10
2023-02-05T04:45:31.232Z,0.10
2023-02-05T04:47:59.492Z,0.20
2023-02-05T04:50:27.196Z,0.20
2023-02-05T04:52:53.897Z,0.20
2023-02-05T04:55:20.771Z,0.20
2023-02-05T04:57:47.461Z,0.20
2023-02-05T05:00:14.624Z,0.20
2023-02-05T05:02:41.333Z,0.20
2023-02-05T05:05:08.845Z,0.20
2023-02-05T05:07:35.521Z,0.20
2023-02-05T05:10:02.212Z,0.20
2023-02-05T05:12:28.891Z,0.20
2023-02-05T05:14:56.196Z,0.20
2023-02-05T05:17:22.926Z,0.20
2023-02-05T05:19:49.722Z,0.20
2023-02-05T05:22:16.607Z,0.30
2023-02-05T05:24:43.306Z,0.30
2023-02-05T05:27:09.963Z,0.30
2023-02-05T05:29:37.182Z,0.40
2023-02-05T05:32:04.478Z,0.50
2023-02-05T05:34:31.373Z,0.50
2023-02-05T05:36:58.067Z,0.50
2023-02-05T05:39:43.140Z,0.60
2023-02-05T05:42:30.361Z,0.60
2023-02-05T05:44:57.310Z,0.60
2023-02-05T05:47:24.131Z,0.60
2023-02-05T05:49:50.870Z,0.60
2023-02-05T05:52:17.620Z,0.70
2023-02-05T05:54:44.425Z,0.70
2023-02-05T05:57:11.301Z,0.70
2023-02-05T05:59:37.963Z,2.00
2023-02-05T06:02:05.282Z,0.70
2023-02-05T06:04:32.116Z,0.70
2023-02-05T06:06:59.327Z,0.80
2023-02-05T06:09:26.205Z,0.80
2023-02-05T06:11:52.873Z,0.80
2023-02-05T06:14:19.616Z,0.90
2023-02-05T06:16:46.393Z,0.90
2023-02-05T06:19:13.181Z,0.90
2023-02-05T06:21:39.868Z,0.90
2023-02-05T06:24:06.694Z,1.00
2023-02-05T06:26:33.411Z,1.00
2023-02-05T06:29:03.431Z,1.10
2023-02-05T06:31:31.813Z,1.20
2023-02-05T06:33:58.650Z,1.20
2023-02-05T06:36:25.440Z,1.20
2023-02-05T06:38:52.193Z,1.20
2023-02-05T06:41:18.891Z,1.30
2023-02-05T06:43:45.663Z,1.30
2023-02-05T06:46:12.376Z,1.30
2023-02-05T06:48:39.273Z,1.40
2023-02-05T06:51:06.365Z,1.40
2023-02-05T06:53:33.234Z,1.40
2023-02-05T06:56:00.127Z,1.40
2023-02-05T06:58:26.845Z,1.40
2023-02-05T07:00:53.680Z,1.50
2023-02-05T07:03:20.408Z,1.50
2023-02-05T07:05:47.203Z,1.50
2023-02-05T07:08:13.880Z,1.60
2023-02-05T07:10:40.591Z,1.60
2023-02-05T07:13:07.300Z,1.60
2023-02-05T07:15:37.232Z,1.70
2023-02-05T07:18:05.021Z,1.70
2023-02-05T07:20:32.161Z,1.70
2023-02-05T07:22:58.892Z,1.80
2023-02-05T07:25:25.779Z,1.80
2023-02-05T07:27:52.595Z,1.80
2023-02-05T07:30:19.337Z,1.80
2023-02-05T07:32:45.988Z,1.80
2023-02-05T07:35:12.725Z,0.20
2023-02-05T07:37:39.530Z,1.90
2023-02-05T07:40:07.073Z,1.90
2023-02-05T07:42:33.732Z,1.80
2023-02-05T07:45:00.394Z,1.90
2023-02-05T07:47:27.076Z,1.90
2023-02-05T07:49:53.770Z,2.00
2023-02-05T07:52:20.531Z,2.00
2023-02-05T07:54:47.289Z,2.10
2023-02-05T07:57:13.960Z,2.10
2023-02-05T07:59:40.851Z,2.20
2023-02-05T08:02:07.552Z,2.30
2023-02-05T08:04:34.314Z,2.30
2023-02-05T08:07:01.210Z,2.30
2023-02-05T08:09:28.013Z,2.30
2023-02-05T08:11:54.729Z,2.30
2023-02-05T08:14:21.421Z,2.30
2023-02-05T08:16:48.182Z,2.30
2023-02-05T08:19:16.476Z,2.30
2023-02-05T08:21:43.608Z,2.30
2023-02-05T08:24:10.592Z,2.40
2023-02-05T08:26:37.258Z,2.40
2023-02-05T08:29:03.987Z,2.50
2023-02-05T08:31:30.757Z,2.50
2023-02-05T08:34:00.025Z,2.60
2023-02-05T08:36:27.568Z,2.60
2023-02-05T08:38:54.452Z,2.60
2023-02-05T08:41:25.587Z,4.20
2023-02-05T08:43:53.419Z,2.70
2023-02-05T08:46:24.175Z,2.80
2023-02-05T08:48:50.946Z,2.90
2023-02-05T08:51:23.023Z,2.90
2023-02-05T08:53:53.679Z,3.00
2023-02-05T08:56:20.541Z,3.00
2023-02-05T08:58:50.739Z,3.00
2023-02-05T09:01:18.476Z,3.10
2023-02-05T09:03:45.670Z,3.10
2023-02-05T09:06:15.162Z,3.20
2023-02-05T09:08:42.459Z,3.20
2023-02-05T09:11:09.220Z,3.20
2023-02-05T09:13:39.653Z,3.70
2023-02-05T09:16:10.050Z,3.30
2023-02-05T09:18:36.774Z,3.30
2023-02-05T09:21:07.459Z,3.40
2023-02-05T09:23:34.287Z,3.40
2023-02-05T09:26:01.189Z,3.50
2023-02-05T09:28:27.996Z,3.50
2023-02-05T09:30:55.030Z,3.50
2023-02-05T09:33:21.816Z,3.70
2023-02-05T09:35:48.509Z,3.60
2023-02-05T09:38:16.052Z,3.70
2023-02-05T09:40:59.748Z,3.70
2023-02-05T09:43:42.595Z,3.80
2023-02-05T09:46:31.233Z,3.90
2023-02-05T09:49:05.204Z,4.00
2023-02-05T09:51:37.504Z,5.40
2023-02-05T09:54:16.594Z,4.10
2023-02-05T09:56:45.698Z,4.10
2023-02-05T09:59:19.496Z,5.50
2023-02-05T10:01:56.360Z,4.20
2023-02-05T10:04:23.463Z,4.20
2023-02-05T10:07:18.988Z,4.30
2023-02-05T10:10:11.593Z,4.30
2023-02-05T10:13:02.743Z,4.30
2023-02-05T10:16:00.861Z,4.30
2023-02-05T10:18:45.473Z,4.30
2023-02-05T10:21:18.270Z,4.30
2023-02-05T10:24:02.896Z,4.40
2023-02-05T10:26:43.881Z,4.50
2023-02-05T10:29:16.157Z,4.40
2023-02-05T10:31:56.245Z,4.50
2023-02-05T10:34:45.316Z,4.60
2023-02-05T10:37:18.787Z,4.80
2023-02-05T10:39:47.333Z,5.00
2023-02-05T10:42:32.004Z,5.10
2023-02-05T10:45:18.138Z,5.20
2023-02-05T10:47:53.173Z,5.30
2023-02-05T10:50:47.469Z,5.40
2023-02-05T10:53:21.586Z,5.50
2023-02-05T10:55:49.185Z,5.50
2023-02-05T10:58:44.990Z,5.50
2023-02-05T11:01:20.068Z,5.60
2023-02-05T11:03:55.051Z,5.70
2023-02-05T11:06:25.168Z,5.70
2023-02-05T11:08:52.069Z,5.70
2023-02-05T11:11:28.591Z,7.10
2023-02-05T11:14:02.304Z,5.50
2023-02-05T11:16:44.651Z,5.30
2023-02-05T11:19:27.347Z,5.30
2023-02-05T11:21:59.560Z,5.30
2023-02-05T11:24:31.049Z,5.40
2023-02-05T11:27:09.749Z,5.40
2023-02-05T11:29:36.606Z,5.40
2023-02-05T11:32:03.600Z,5.30
2023-02-05T11:34:34.256Z,5.20
2023-02-05T11:37:01.216Z,6.90
2023-02-05T11:39:39.442Z,5.10
2023-02-05T11:42:16.578Z,5.20
2023-02-05T11:44:56.516Z,5.20
2023-02-05T11:47:36.823Z,5.20
2023-02-05T11:50:05.936Z,5.20
2023-02-05T11:52:37.800Z,5.20
2023-02-05T11:55:06.170Z,5.20
2023-02-05T11:57:38.528Z,5.20
2023-02-05T12:00:08.092Z,5.10
2023-02-05T12:02:44.708Z,5.20
2023-02-05T12:05:32.722Z,5.20
2023-02-05T12:08:10.550Z,5.20
2023-02-05T12:11:01.082Z,5.20
2023-02-05T12:13:35.130Z,5.20
2023-02-05T12:16:28.160Z,6.60
2023-02-05T12:19:19.589Z,5.20
2023-02-05T12:22:05.862Z,5.20
2023-02-05T12:25:02.116Z,5.20
2023-02-05T12:28:04.457Z,5.20
2023-02-05T12:31:01.756Z,5.30
2023-02-05T12:33:49.028Z,5.30
2023-02-05T12:36:30.315Z,5.30
2023-02-05T12:39:21.932Z,5.30
2023-02-05T12:41:56.809Z,5.40
2023-02-05T12:44:58.471Z,5.40
2023-02-05T12:48:02.925Z,5.50
2023-02-05T12:50:38.788Z,5.50
2023-02-05T12:53:24.163Z,5.50
2023-02-05T12:56:06.476Z,5.60
2023-02-05T12:58:47.778Z,5.70
2023-02-05T13:01:22.829Z,5.90
2023-02-05T13:03:53.946Z,6.00
2023-02-05T13:06:27.954Z,6.00
2023-02-05T13:09:27.372Z,6.00
2023-02-05T13:11:58.516Z,6.00
2023-02-05T13:14:56.366Z,6.10
2023-02-05T13:17:38.115Z,6.00
2023-02-05T13:20:08.297Z,7.20
2023-02-05T13:23:11.352Z,6.00
2023-02-05T13:26:07.610Z,6.10
2023-02-05T13:28:47.752Z,6.10
2023-02-05T13:31:38.582Z,6.50
2023-02-05T13:34:14.241Z,6.00
2023-02-05T13:37:00.399Z,6.00
2023-02-05T13:39:34.503Z,6.00
2023-02-05T13:42:25.388Z,5.90
2023-02-05T13:45:14.262Z,5.80
2023-02-05T13:47:43.999Z,5.80
2023-02-05T13:50:30.670Z,7.30
2023-02-05T13:53:11.342Z,5.80
2023-02-05T13:56:11.892Z,5.80
2023-02-05T13:59:07.392Z,5.70
2023-02-05T14:02:00.532Z,5.70
2023-02-05T14:04:42.151Z,5.80
2023-02-05T14:07:14.803Z,5.90
2023-02-05T14:09:59.586Z,7.10
2023-02-05T14:12:37.953Z,5.80
2023-02-05T14:15:17.289Z,5.90
2023-02-05T14:17:44.087Z,5.90
2023-02-05T14:20:42.749Z,5.90
2023-02-05T14:23:33.655Z,5.80
2023-02-05T14:26:03.291Z,5.80
2023-02-05T14:28:30.006Z,5.70
2023-02-05T14:31:01.342Z,5.70
2023-02-05T14:33:35.687Z,5.80
2023-02-05T14:36:19.413Z,5.90
2023-02-05T14:38:57.217Z,5.80
2023-02-05T14:41:39.220Z,5.70
2023-02-05T14:44:13.525Z,6.90
2023-02-05T14:46:40.308Z,5.40
2023-02-05T14:49:20.138Z,5.30
2023-02-05T14:52:00.210Z,5.30
2023-02-05T14:54:48.917Z,5.40
2023-02-05T14:57:22.205Z,5.60
2023-02-05T14:59:56.943Z,5.70
2023-02-05T15:02:45.485Z,5.80
2023-02-05T15:06:01.423Z,5.70
2023-02-05T15:08:40.321Z,5.50
2023-02-05T15:11:49.503Z,5.30
2023-02-05T15:14:19.583Z,5.10
2023-02-05T15:17:14.918Z,5.10
2023-02-05T15:19:52.857Z,5.20
2023-02-05T15:22:31.261Z,5.30
2023-02-05T15:24:58.586Z,5.30
2023-02-05T15:27:46.794Z,5.20
2023-02-05T15:30:24.402Z,5.10
2023-02-05T15:32:57.513Z,5.00
2023-02-05T15:35:30.586Z,4.80
2023-02-05T15:38:09.009Z,3.00
2023-02-05T15:40:40.633Z,4.60
2023-02-05T15:43:24.698Z,3.30
2023-02-05T15:45:57.785Z,4.50
2023-02-05T15:48:27.318Z,4.60
2023-02-05T15:51:04.721Z,5.90
2023-02-05T15:53:35.121Z,4.50
2023-02-05T15:56:20.168Z,4.50
2023-02-05T15:59:09.819Z,4.50
2023-02-05T16:01:39.825Z,4.60
2023-02-05T16:04:28.492Z,2.80
2023-02-05T16:06:55.382Z,4.70
2023-02-05T16:09:25.014Z,6.10
2023-02-05T16:11:52.484Z,4.70
2023-02-05T16:14:24.636Z,4.70
2023-02-05T16:17:00.229Z,4.70
2023-02-05T16:19:42.386Z,4.90
2023-02-05T16:22:30.775Z,5.00
2023-02-05T16:25:01.345Z,5.10
2023-02-05T16:27:40.560Z,5.10
2023-02-05T16:30:18.033Z,5.20
2023-02-05T16:32:45.277Z,5.00
2023-02-05T16:35:29.329Z,6.30
2023-02-05T16:37:57.074Z,4.90
2023-02-05T16:40:43.140Z,6.70
2023-02-05T16:43:20.635Z,4.60
2023-02-05T16:46:10.262Z,4.50
2023-02-05T16:48:52.592Z,4.30
2023-02-05T16:51:28.514Z,4.20
2023-02-05T16:53:55.405Z,4.00
2023-02-05T16:56:25.007Z,3.90
2023-02-05T16:58:55.877Z,3.80
2023-02-05T17:01:28.025Z,3.70
2023-02-05T17:03:56.376Z,3.60
2023-02-05T17:06:23.772Z,3.50
2023-02-05T17:08:54.987Z,3.50
2023-02-05T17:11:38.360Z,3.50
2023-02-05T17:14:29.339Z,3.60
2023-02-05T17:17:15.416Z,3.70
2023-02-05T17:19:42.550Z,3.70
2023-02-05T17:22:15.425Z,3.70
2023-02-05T17:24:43.520Z,3.60
2023-02-05T17:27:16.465Z,3.60
2023-02-05T17:29:43.847Z,3.60
2023-02-05T17:32:17.261Z,3.60
2023-02-05T17:34:45.408Z,3.60
2023-02-05T17:37:12.667Z,3.60
2023-02-05T17:39:39.674Z,3.60
2023-02-05T17:42:10.037Z,3.60
2023-02-05T17:44:37.012Z,3.50
2023-02-05T17:47:04.913Z,3.60
2023-02-05T17:49:31.661Z,4.10
2023-02-05T17:51:58.451Z,3.70
2023-02-05T17:54:26.118Z,3.60
2023-02-05T17:56:56.932Z,3.50
2023-02-05T17:59:25.739Z,3.40
2023-02-05T18:01:52.929Z,3.40
2023-02-05T18:04:20.407Z,3.30
2023-02-05T18:06:51.243Z,3.30
2023-02-05T18:09:20.095Z,3.30
2023-02-05T18:11:46.914Z,3.20
2023-02-05T18:14:13.783Z,3.20
2023-02-05T18:16:40.612Z,3.20
2023-02-05T18:19:07.499Z,3.20
2023-02-05T18:21:34.842Z,3.20
2023-02-05T18:24:02.295Z,3.20
2023-02-05T18:26:29.076Z,3.30
2023-02-05T18:28:55.798Z,3.20
2023-02-05T18:31:22.684Z,3.20
2023-02-05T18:33:51.496Z,3.20
2023-02-05T18:36:18.189Z,3.10
2023-02-05T18:38:44.925Z,3.10
2023-02-05T18:41:17.947Z,3.10
2023-02-05T18:43:45.158Z,3.00
2023-02-05T18:46:17.412Z,3.00
2023-02-05T18:48:50.703Z,2.90
2023-02-05T18:51:22.108Z,4.80
2023-02-05T18:53:54.216Z,2.80
2023-02-05T18:56:24.378Z,2.80
2023-02-05T18:58:59.224Z,2.80
2023-02-05T19:01:30.083Z,2.80
2023-02-05T19:04:18.775Z,2.80
2023-02-05T19:06:55.595Z,2.80
2023-02-05T19:09:24.659Z,2.70
2023-02-05T19:11:56.371Z,2.70
2023-02-05T19:14:28.451Z,2.60
2023-02-05T19:16:59.177Z,2.60
2023-02-05T19:19:27.252Z,2.50
2023-02-05T19:22:02.229Z,2.40
2023-02-05T19:24:36.153Z,2.40
2023-02-05T19:27:04.245Z,2.30
2023-02-05T19:29:40.377Z,2.30
2023-02-05T19:32:14.125Z,2.30
2023-02-05T19:34:46.759Z,2.30
2023-02-05T19:37:22.334Z,2.20
2023-02-05T19:39:49.048Z,2.20
2023-02-05T19:42:15.911Z,2.20
2023-02-05T19:44:45.846Z,2.20
2023-02-05T19:47:13.686Z,2.30
2023-02-05T19:49:44.312Z,2.30
2023-02-05T19:52:12.513Z,2.40
2023-02-05T19:54:44.165Z,2.50
2023-02-05T19:57:15.537Z,2.60
2023-02-05T19:59:45.457Z,2.60
2023-02-05T20:02:19.314Z,2.60
2023-02-05T20:04:49.484Z,4.40
2023-02-05T20:07:17.344Z,2.60
2023-02-05T20:09:48.118Z,2.60
2023-02-05T20:12:14.900Z,2.50
2023-02-05T20:14:41.824Z,2.40
2023-02-05T20:17:09.148Z,2.50
2023-02-05T20:19:35.957Z,2.50
2023-02-05T20:22:06.176Z,2.40
2023-02-05T20:24:32.968Z,2.40
2023-02-05T20:27:03.180Z,2.40
2023-02-05T20:29:48.448Z,2.30
2023-02-05T20:32:15.338Z,3.90
2023-02-05T20:34:50.037Z,2.40
2023-02-05T20:37:20.576Z,2.30
2023-02-05T20:39:50.419Z,2.20
2023-02-05T20:42:19.868Z,2.20
2023-02-05T20:44:50.395Z,2.40
2023-02-05T20:47:17.070Z,2.50
2023-02-05T20:49:44.983Z,2.50
2023-02-05T20:52:11.965Z,2.60
2023-02-05T20:54:39.036Z,2.80
2023-02-05T20:57:05.948Z,2.80
2023-02-05T20:59:33.796Z,2.70
2023-02-05T21:02:04.400Z,2.50
2023-02-05T21:04:36.745Z,2.40
2023-02-05T21:07:03.471Z,2.30
2023-02-05T21:09:34.780Z,2.20
2023-02-05T21:12:01.845Z,2.20
2023-02-05T21:14:28.781Z,4.40
2023-02-05T21:16:55.462Z,2.20
2023-02-05T21:19:24.089Z,2.20
2023-02-05T21:21:51.402Z,2.30
2023-02-05T21:24:18.574Z,2.30
2023-02-05T21:26:47.481Z,2.40
2023-02-05T21:29:20.366Z,2.40
2023-02-05T21:31:53.107Z,2.30
2023-02-05T21:34:26.276Z,2.30
2023-02-05T21:36:54.944Z,2.20
2023-02-05T21:39:22.060Z,2.20
2023-02-05T21:41:53.978Z,2.20
2023-02-05T21:44:24.315Z,2.50
2023-02-05T21:46:57.809Z,2.20
2023-02-05T21:49:24.580Z,2.20
2023-02-05T21:51:53.201Z,2.30
2023-02-05T21:54:25.410Z,2.40
2023-02-05T21:56:52.370Z,2.60
2023-02-05T21:59:20.055Z,2.60
2023-02-05T22:01:50.247Z,2.60
2023-02-05T22:04:17.640Z,2.60
2023-02-05T22:06:44.579Z,2.70
2023-02-05T22:09:14.074Z,2.80
2023-02-05T22:11:41.194Z,2.70
2023-02-05T22:14:09.121Z,2.70
2023-02-05T22:16:36.794Z,2.60
2023-02-05T22:19:04.741Z,2.60
2023-02-05T22:21:34.465Z,2.60
2023-02-05T22:24:02.079Z,2.60
2023-02-05T22:26:38.138Z,2.60
2023-02-05T22:29:07.033Z,2.50
2023-02-05T22:31:34.436Z,2.50
2023-02-05T22:34:01.220Z,2.50
2023-02-05T22:36:30.725Z,2.50
2023-02-05T22:38:58.039Z,2.50
2023-02-05T22:41:27.322Z,2.60
2023-02-05T22:43:55.172Z,2.80
2023-02-05T22:46:29.008Z,2.90
2023-02-05T22:48:57.986Z,3.00
2023-02-05T22:51:31.720Z,3.00
2023-02-05T22:53:59.338Z,3.00
2023-02-05T22:56:26.609Z,2.90
2023-02-05T22:58:53.938Z,3.00
2023-02-05T23:01:23.748Z,3.00
2023-02-05T23:03:51.980Z,3.00
2023-02-05T23:06:24.451Z,3.00
2023-02-05T23:08:53.670Z,3.00
2023-02-05T23:11:21.403Z,2.90
2023-02-05T23:13:48.732Z,2.80
2023-02-05T23:16:21.933Z,2.70
2023-02-05T23:18:50.057Z,2.70
2023-02-05T23:21:24.024Z,3.90
2023-02-05T23:23:51.008Z,3.40
2023-02-05T23:26:20.374Z,2.70
2023-02-05T23:28:47.600Z,2.60
2023-02-05T23:31:15.123Z,2.40
2023-02-05T23:33:42.234Z,2.30
2023-02-05T23:36:09.315Z,2.20
2023-02-05T23:38:36.140Z,2.20
2023-02-05T23:41:04.032Z,2.10
2023-02-05T23:43:35.635Z,2.00
2023-02-05T23:46:03.070Z,2.00
2023-02-05T23:48:29.804Z,2.00
2023-02-05T23:50:57.184Z,2.20
2023-02-05T23:53:24.211Z,2.30
2023-02-05T23:55:52.427Z,2.30
2023-02-05T23:58:20.895Z,2.30
